sensor_id;sensor_type;location;lat;lon;timestamp;pressure;altitude;pressure_sealevel;temperature;humidity
45731;BME280;31440;48.584;13.460;2023-02-15T00:01:26;98354.06;;;-2.00;100.00
45731;BME280;31440;48.584;13.460;2023-02-15T00:04:31;98354.66;;;-1.83;100.00
45731;BME280;31440;48.584;13.460;2023-02-15T00:07:51;98336.41;;;-1.70;100.00
45731;BME280;31440;48.584;13.460;2023-02-15T00:14:12;98346.88;;;-1.60;100.00
45731;BME280;31440;48.584;13.460;2023-02-15T00:17:17;98324.63;;;-1.66;100.00
45731;BME280;31440;48.584;13.460;2023-02-15T00:20:22;98333.59;;;-1.77;100.00
45731;BME280;31440;48.584;13.460;2023-02-15T00:23:27;98290.19;;;-2.29;100.00
45731;BME280;31440;48.584;13.460;2023-02-15T00:26:32;98333.03;;;-1.94;100.00
45731;BME280;31440;48.584;13.460;2023-02-15T00:29:37;98328.75;;;-1.95;100.00
45731;BME280;31440;48.584;13.460;2023-02-15T00:32:42;98297.13;;;-2.25;100.00
45731;BME280;31440;48.584;13.460;2023-02-15T00:35:55;98326.09;;;-1.98;100.00
45731;BME280;31440;48.584;13.460;2023-02-15T00:38:59;98315.44;;;-2.12;100.00
45731;BME280;31440;48.584;13.460;2023-02-15T00:42:04;98322.72;;;-1.97;100.00
45731;BME280;31440;48.584;13.460;2023-02-15T00:45:09;98316.56;;;-2.04;100.00
45731;BME280;31440;48.584;13.460;2023-02-15T00:48:14;98279.88;;;-2.32;100.00
45731;BME280;31440;48.584;13.460;2023-02-15T00:51:18;98284.22;;;-2.30;100.00
45731;BME280;31440;48.584;13.460;2023-02-15T00:54:24;98310.56;;;-2.29;100.00
45731;BME280;31440;48.584;13.460;2023-02-15T00:57:29;98311.59;;;-2.24;100.00
45731;BME280;31440;48.584;13.460;2023-02-15T01:00:34;98289.13;;;-2.11;100.00
45731;BME280;31440;48.584;13.460;2023-02-15T01:03:39;98307.47;;;-2.21;100.00
45731;BME280;31440;48.584;13.460;2023-02-15T01:06:46;98288.16;;;-2.14;100.00
45731;BME280;31440;48.584;13.460;2023-02-15T01:09:51;98307.63;;;-2.16;100.00
45731;BME280;31440;48.584;13.460;2023-02-15T01:12:57;98273.59;;;-2.18;100.00
45731;BME280;31440;48.584;13.460;2023-02-15T01:16:04;98261.81;;;-2.40;100.00
45731;BME280;31440;48.584;13.460;2023-02-15T01:19:09;98294.53;;;-2.27;100.00
45731;BME280;31440;48.584;13.460;2023-02-15T01:22:15;98297.81;;;-2.29;100.00
45731;BME280;31440;48.584;13.460;2023-02-15T01:25:22;98292.03;;;-2.25;100.00
45731;BME280;31440;48.584;13.460;2023-02-15T01:28:27;98288.28;;;-2.35;100.00
45731;BME280;31440;48.584;13.460;2023-02-15T01:31:32;98260.84;;;-2.44;100.00
45731;BME280;31440;48.584;13.460;2023-02-15T01:34:38;98278.44;;;-2.01;100.00
45731;BME280;31440;48.584;13.460;2023-02-15T01:37:43;98241.16;;;-2.48;100.00
45731;BME280;31440;48.584;13.460;2023-02-15T01:40:51;98238.75;;;-2.18;100.00
45731;BME280;31440;48.584;13.460;2023-02-15T01:43:59;98271.03;;;-1.93;100.00
45731;BME280;31440;48.584;13.460;2023-02-15T01:47:05;98263.31;;;-1.94;100.00
45731;BME280;31440;48.584;13.460;2023-02-15T01:50:15;98271.63;;;-2.02;100.00
45731;BME280;31440;48.584;13.460;2023-02-15T01:53:43;98266.84;;;-1.91;100.00
45731;BME280;31440;48.584;13.460;2023-02-15T01:56:53;98238.88;;;-2.40;100.00
45731;BME280;31440;48.584;13.460;2023-02-15T02:00:04;98223.44;;;-2.45;100.00
45731;BME280;31440;48.584;13.460;2023-02-15T02:03:16;98212.50;;;-2.42;100.00
45731;BME280;31440;48.584;13.460;2023-02-15T02:06:21;98249.63;;;-2.23;100.00
45731;BME280;31440;48.584;13.460;2023-02-15T02:09:30;98229.03;;;-2.29;100.00
45731;BME280;31440;48.584;13.460;2023-02-15T02:12:35;98210.59;;;-2.72;100.00
45731;BME280;31440;48.584;13.460;2023-02-15T02:16:02;98209.19;;;-2.40;100.00
45731;BME280;31440;48.584;13.460;2023-02-15T02:23:16;98236.44;;;-2.12;100.00
45731;BME280;31440;48.584;13.460;2023-02-15T02:30:34;98226.34;;;-2.83;100.00
45731;BME280;31440;48.584;13.460;2023-02-15T02:33:57;98242.53;;;-2.81;100.00
45731;BME280;31440;48.584;13.460;2023-02-15T02:37:21;98213.13;;;-2.97;100.00
45731;BME280;31440;48.584;13.460;2023-02-15T02:44:35;98188.53;;;-2.96;100.00
45731;BME280;31440;48.584;13.460;2023-02-15T02:47:56;98240.91;;;-2.79;100.00
45731;BME280;31440;48.584;13.460;2023-02-15T02:51:03;98226.59;;;-2.99;100.00
45731;BME280;31440;48.584;13.460;2023-02-15T02:54:08;98236.09;;;-2.95;100.00
45731;BME280;31440;48.584;13.460;2023-02-15T02:57:13;98197.56;;;-2.81;100.00
45731;BME280;31440;48.584;13.460;2023-02-15T03:00:20;98179.00;;;-2.78;100.00
45731;BME280;31440;48.584;13.460;2023-02-15T03:03:36;98194.50;;;-2.72;100.00
45731;BME280;31440;48.584;13.460;2023-02-15T03:06:50;98230.38;;;-2.88;100.00
45731;BME280;31440;48.584;13.460;2023-02-15T03:10:02;98191.91;;;-3.66;100.00
45731;BME280;31440;48.584;13.460;2023-02-15T03:13:08;98192.19;;;-3.36;100.00
45731;BME280;31440;48.584;13.460;2023-02-15T03:16:15;98227.75;;;-2.91;100.00
45731;BME280;31440;48.584;13.460;2023-02-15T03:19:34;98190.88;;;-3.25;100.00
45731;BME280;31440;48.584;13.460;2023-02-15T03:22:46;98234.78;;;-2.84;100.00
45731;BME280;31440;48.584;13.460;2023-02-15T03:25:59;98232.69;;;-2.96;100.00
45731;BME280;31440;48.584;13.460;2023-02-15T03:29:10;98235.16;;;-2.97;100.00
45731;BME280;31440;48.584;13.460;2023-02-15T03:32:16;98181.63;;;-3.23;100.00
45731;BME280;31440;48.584;13.460;2023-02-15T03:35:24;98178.28;;;-3.22;100.00
45731;BME280;31440;48.584;13.460;2023-02-15T03:38:44;98172.44;;;-3.19;100.00
45731;BME280;31440;48.584;13.460;2023-02-15T03:42:16;98208.50;;;-3.07;100.00
45731;BME280;31440;48.584;13.460;2023-02-15T03:45:25;98188.16;;;-3.31;100.00
45731;BME280;31440;48.584;13.460;2023-02-15T03:48:36;98215.25;;;-3.09;100.00
45731;BME280;31440;48.584;13.460;2023-02-15T03:51:47;98173.34;;;-3.41;100.00
45731;BME280;31440;48.584;13.460;2023-02-15T03:54:53;98195.97;;;-3.25;100.00
45731;BME280;31440;48.584;13.460;2023-02-15T03:57:58;98179.09;;;-3.23;100.00
45731;BME280;31440;48.584;13.460;2023-02-15T04:04:48;98210.25;;;-2.82;100.00
45731;BME280;31440;48.584;13.460;2023-02-15T04:07:52;98161.00;;;-3.08;100.00
45731;BME280;31440;48.584;13.460;2023-02-15T04:10:57;98189.00;;;-3.30;100.00
45731;BME280;31440;48.584;13.460;2023-02-15T04:14:03;98154.47;;;-3.24;100.00
45731;BME280;31440;48.584;13.460;2023-02-15T04:17:28;98157.47;;;-3.12;100.00
45731;BME280;31440;48.584;13.460;2023-02-15T04:20:33;98188.75;;;-3.14;100.00
45731;BME280;31440;48.584;13.460;2023-02-15T04:23:56;98174.19;;;-2.94;100.00
45731;BME280;31440;48.584;13.460;2023-02-15T04:27:19;98211.41;;;-2.74;100.00
45731;BME280;31440;48.584;13.460;2023-02-15T04:30:25;98206.78;;;-3.08;100.00
45731;BME280;31440;48.584;13.460;2023-02-15T04:33:31;98177.13;;;-3.08;100.00
45731;BME280;31440;48.584;13.460;2023-02-15T04:36:38;98178.53;;;-2.92;100.00
45731;BME280;31440;48.584;13.460;2023-02-15T04:39:43;98182.59;;;-3.43;100.00
45731;BME280;31440;48.584;13.460;2023-02-15T04:42:48;98160.84;;;-2.87;100.00
45731;BME280;31440;48.584;13.460;2023-02-15T04:45:54;98219.66;;;-3.03;100.00
45731;BME280;31440;48.584;13.460;2023-02-15T04:48:59;98216.63;;;-3.17;100.00
45731;BME280;31440;48.584;13.460;2023-02-15T04:52:04;98208.69;;;-3.25;100.00
45731;BME280;31440;48.584;13.460;2023-02-15T04:55:09;98187.81;;;-3.16;100.00
45731;BME280;31440;48.584;13.460;2023-02-15T04:58:14;98211.38;;;-2.98;100.00
45731;BME280;31440;48.584;13.460;2023-02-15T05:01:18;98204.25;;;-3.08;100.00
45731;BME280;31440;48.584;13.460;2023-02-15T05:04:23;98169.78;;;-3.68;100.00
45731;BME280;31440;48.584;13.460;2023-02-15T05:07:28;98183.06;;;-3.31;100.00
45731;BME280;31440;48.584;13.460;2023-02-15T05:10:33;98202.94;;;-3.43;100.00
45731;BME280;31440;48.584;13.460;2023-02-15T05:13:37;98201.31;;;-3.41;100.00
45731;BME280;31440;48.584;13.460;2023-02-15T05:16:42;98203.09;;;-3.16;100.00
45731;BME280;31440;48.584;13.460;2023-02-15T05:19:46;98176.19;;;-3.33;100.00
45731;BME280;31440;48.584;13.460;2023-02-15T05:22:54;98180.03;;;-3.43;100.00
45731;BME280;31440;48.584;13.460;2023-02-15T05:25:59;98206.94;;;-3.27;100.00
45731;BME280;31440;48.584;13.460;2023-02-15T05:29:22;98210.34;;;-3.27;100.00
45731;BME280;31440;48.584;13.460;2023-02-15T05:32:26;98215.75;;;-3.18;100.00
45731;BME280;31440;48.584;13.460;2023-02-15T05:35:32;98175.25;;;-3.58;100.00
45731;BME280;31440;48.584;13.460;2023-02-15T05:38:36;98213.47;;;-3.56;100.00
45731;BME280;31440;48.584;13.460;2023-02-15T05:41:41;98214.81;;;-3.20;100.00
45731;BME280;31440;48.584;13.460;2023-02-15T05:44:46;98208.31;;;-3.35;100.00
45731;BME280;31440;48.584;13.460;2023-02-15T05:47:51;98213.22;;;-3.18;100.00
45731;BME280;31440;48.584;13.460;2023-02-15T05:51:04;98224.16;;;-3.43;100.00
45731;BME280;31440;48.584;13.460;2023-02-15T05:54:10;98183.00;;;-3.55;100.00
45731;BME280;31440;48.584;13.460;2023-02-15T05:57:14;98171.72;;;-2.93;100.00
45731;BME280;31440;48.584;13.460;2023-02-15T06:00:20;98228.88;;;-2.83;100.00
45731;BME280;31440;48.584;13.460;2023-02-15T06:03:26;98233.72;;;-2.91;100.00
45731;BME280;31440;48.584;13.460;2023-02-15T06:06:33;98237.22;;;-3.33;100.00
45731;BME280;31440;48.584;13.460;2023-02-15T06:09:39;98236.75;;;-3.23;100.00
45731;BME280;31440;48.584;13.460;2023-02-15T06:12:45;98233.81;;;-3.34;100.00
45731;BME280;31440;48.584;13.460;2023-02-15T06:15:50;98197.56;;;-3.73;100.00
45731;BME280;31440;48.584;13.460;2023-02-15T06:18:55;98249.75;;;-3.60;100.00
45731;BME280;31440;48.584;13.460;2023-02-15T06:22:01;98209.72;;;-3.66;100.00
45731;BME280;31440;48.584;13.460;2023-02-15T06:25:07;98250.91;;;-3.52;100.00
45731;BME280;31440;48.584;13.460;2023-02-15T06:28:14;98219.69;;;-3.70;100.00
45731;BME280;31440;48.584;13.460;2023-02-15T06:31:20;98254.78;;;-3.40;100.00
45731;BME280;31440;48.584;13.460;2023-02-15T06:34:25;98258.03;;;-3.87;100.00
45731;BME280;31440;48.584;13.460;2023-02-15T06:37:30;98256.06;;;-3.51;100.00
45731;BME280;31440;48.584;13.460;2023-02-15T06:40:35;98215.88;;;-3.59;100.00
45731;BME280;31440;48.584;13.460;2023-02-15T06:43:40;98264.44;;;-3.53;100.00
45731;BME280;31440;48.584;13.460;2023-02-15T06:46:45;98269.72;;;-3.69;100.00
45731;BME280;31440;48.584;13.460;2023-02-15T06:49:50;98272.13;;;-3.52;100.00
45731;BME280;31440;48.584;13.460;2023-02-15T06:52:56;98273.47;;;-3.61;100.00
45731;BME280;31440;48.584;13.460;2023-02-15T06:56:03;98278.19;;;-3.48;100.00
45731;BME280;31440;48.584;13.460;2023-02-15T06:59:10;98266.59;;;-3.85;100.00
45731;BME280;31440;48.584;13.460;2023-02-15T07:02:15;98281.09;;;-3.61;100.00
45731;BME280;31440;48.584;13.460;2023-02-15T07:05:20;98281.44;;;-3.73;100.00
45731;BME280;31440;48.584;13.460;2023-02-15T07:08:26;98283.56;;;-3.63;100.00
45731;BME280;31440;48.584;13.460;2023-02-15T07:11:30;98291.84;;;-3.46;100.00
45731;BME280;31440;48.584;13.460;2023-02-15T07:14:53;98288.22;;;-3.30;100.00
45731;BME280;31440;48.584;13.460;2023-02-15T07:17:58;98301.16;;;-3.24;100.00
45731;BME280;31440;48.584;13.460;2023-02-15T07:21:03;98257.00;;;-3.49;100.00
45731;BME280;31440;48.584;13.460;2023-02-15T07:24:08;98286.00;;;-3.21;100.00
45731;BME280;31440;48.584;13.460;2023-02-15T07:27:12;98272.09;;;-3.31;100.00
45731;BME280;31440;48.584;13.460;2023-02-15T07:30:17;98285.25;;;-2.96;100.00
45731;BME280;31440;48.584;13.460;2023-02-15T07:33:22;98291.91;;;-3.00;100.00
45731;BME280;31440;48.584;13.460;2023-02-15T07:36:27;98289.06;;;-2.61;100.00
45731;BME280;31440;48.584;13.460;2023-02-15T07:39:31;98257.56;;;-2.87;100.00
45731;BME280;31440;48.584;13.460;2023-02-15T07:42:36;98282.94;;;-2.90;100.00
45731;BME280;31440;48.584;13.460;2023-02-15T07:45:41;98277.53;;;-2.76;100.00
45731;BME280;31440;48.584;13.460;2023-02-15T07:48:45;98270.78;;;-2.50;100.00
45731;BME280;31440;48.584;13.460;2023-02-15T07:51:50;98274.06;;;-2.54;100.00
45731;BME280;31440;48.584;13.460;2023-02-15T07:54:55;98270.44;;;-2.35;100.00
45731;BME280;31440;48.584;13.460;2023-02-15T07:58:00;98270.41;;;-2.11;100.00
45731;BME280;31440;48.584;13.460;2023-02-15T08:01:05;98232.25;;;-2.35;100.00
45731;BME280;31440;48.584;13.460;2023-02-15T08:04:09;98276.09;;;-2.67;100.00
45731;BME280;31440;48.584;13.460;2023-02-15T08:07:15;98227.09;;;-3.10;100.00
45731;BME280;31440;48.584;13.460;2023-02-15T08:10:20;98267.13;;;-2.58;100.00
45731;BME280;31440;48.584;13.460;2023-02-15T08:13:46;98229.06;;;-2.53;100.00
45731;BME280;31440;48.584;13.460;2023-02-15T08:16:59;98269.28;;;-2.68;100.00
45731;BME280;31440;48.584;13.460;2023-02-15T08:20:07;98245.19;;;-2.78;100.00
45731;BME280;31440;48.584;13.460;2023-02-15T08:23:12;98261.56;;;-3.18;100.00
45731;BME280;31440;48.584;13.460;2023-02-15T08:26:17;98230.09;;;-2.74;100.00
45731;BME280;31440;48.584;13.460;2023-02-15T08:29:24;98234.22;;;-2.52;100.00
45731;BME280;31440;48.584;13.460;2023-02-15T08:32:29;98267.88;;;-2.37;100.00
45731;BME280;31440;48.584;13.460;2023-02-15T08:35:34;98263.59;;;-2.12;100.00
45731;BME280;31440;48.584;13.460;2023-02-15T08:38:39;98270.88;;;-1.97;100.00
45731;BME280;31440;48.584;13.460;2023-02-15T08:41:46;98274.09;;;-2.03;100.00
45731;BME280;31440;48.584;13.460;2023-02-15T08:44:51;98248.06;;;-1.68;100.00
45731;BME280;31440;48.584;13.460;2023-02-15T08:47:56;98263.97;;;-2.02;100.00
45731;BME280;31440;48.584;13.460;2023-02-15T08:51:17;98256.38;;;-2.00;100.00
45731;BME280;31440;48.584;13.460;2023-02-15T08:54:22;98261.66;;;-1.94;100.00
45731;BME280;31440;48.584;13.460;2023-02-15T08:57:27;98223.34;;;-2.22;100.00
45731;BME280;31440;48.584;13.460;2023-02-15T09:00:31;98262.72;;;-1.87;100.00
45731;BME280;31440;48.584;13.460;2023-02-15T09:03:36;98258.47;;;-1.60;100.00
45731;BME280;31440;48.584;13.460;2023-02-15T09:06:41;98260.59;;;-1.74;100.00
45731;BME280;31440;48.584;13.460;2023-02-15T09:09:51;98261.69;;;-1.92;100.00
45731;BME280;31440;48.584;13.460;2023-02-15T09:12:56;98215.81;;;-1.92;100.00
45731;BME280;31440;48.584;13.460;2023-02-15T09:16:02;98257.22;;;-1.46;100.00
45731;BME280;31440;48.584;13.460;2023-02-15T09:19:07;98242.00;;;-1.43;100.00
45731;BME280;31440;48.584;13.460;2023-02-15T09:22:12;98222.84;;;-1.85;100.00
45731;BME280;31440;48.584;13.460;2023-02-15T09:25:17;98267.00;;;-1.33;100.00
45731;BME280;31440;48.584;13.460;2023-02-15T09:28:22;98264.44;;;-1.33;100.00
45731;BME280;31440;48.584;13.460;2023-02-15T09:31:29;98262.19;;;-1.50;100.00
45731;BME280;31440;48.584;13.460;2023-02-15T09:34:34;98255.50;;;-1.18;100.00
45731;BME280;31440;48.584;13.460;2023-02-15T09:37:39;98224.34;;;-1.63;100.00
45731;BME280;31440;48.584;13.460;2023-02-15T09:40:52;98267.09;;;-1.29;100.00
45731;BME280;31440;48.584;13.460;2023-02-15T09:51:36;98217.03;;;-0.96;100.00
45731;BME280;31440;48.584;13.460;2023-02-15T09:58:22;98208.56;;;-1.23;100.00
45731;BME280;31440;48.584;13.460;2023-02-15T10:05:48;98250.78;;;-1.05;100.00
45731;BME280;31440;48.584;13.460;2023-02-15T10:16:19;98208.34;;;-1.01;100.00
45731;BME280;31440;48.584;13.460;2023-02-15T10:23:11;98235.50;;;-0.73;100.00
45731;BME280;31440;48.584;13.460;2023-02-15T10:26:20;98193.41;;;-0.87;100.00
45731;BME280;31440;48.584;13.460;2023-02-15T10:29:38;98215.66;;;-0.52;100.00
45731;BME280;31440;48.584;13.460;2023-02-15T10:36:18;98207.63;;;-0.66;100.00
45731;BME280;31440;48.584;13.460;2023-02-15T10:53:20;98197.78;;;-0.52;100.00
45731;BME280;31440;48.584;13.460;2023-02-15T10:59:55;98186.22;;;-0.38;100.00
45731;BME280;31440;48.584;13.460;2023-02-15T11:06:28;98169.91;;;-0.08;100.00
45731;BME280;31440;48.584;13.460;2023-02-15T11:09:44;98153.22;;;-0.29;100.00
45731;BME280;31440;48.584;13.460;2023-02-15T11:12:52;98192.38;;;0.05;100.00
45731;BME280;31440;48.584;13.460;2023-02-15T11:16:01;98188.44;;;0.19;100.00
45731;BME280;31440;48.584;13.460;2023-02-15T11:19:22;98160.56;;;-0.42;100.00
45731;BME280;31440;48.584;13.460;2023-02-15T11:22:30;98190.66;;;0.04;100.00
45731;BME280;31440;48.584;13.460;2023-02-15T11:25:36;98177.91;;;-0.29;100.00
45731;BME280;31440;48.584;13.460;2023-02-15T11:28:46;98168.25;;;-0.06;100.00
45731;BME280;31440;48.584;13.460;2023-02-15T11:32:12;98156.31;;;0.30;100.00
45731;BME280;31440;48.584;13.460;2023-02-15T11:38:29;98172.97;;;0.52;100.00
45731;BME280;31440;48.584;13.460;2023-02-15T11:41:39;98168.78;;;0.96;100.00
45731;BME280;31440;48.584;13.460;2023-02-15T11:45:07;98162.63;;;0.46;100.00
45731;BME280;31440;48.584;13.460;2023-02-15T11:48:21;98148.09;;;0.86;100.00
45731;BME280;31440;48.584;13.460;2023-02-15T11:51:26;98115.88;;;0.55;100.00
45731;BME280;31440;48.584;13.460;2023-02-15T11:54:40;98129.81;;;0.69;100.00
45731;BME280;31440;48.584;13.460;2023-02-15T11:57:52;98144.34;;;0.29;100.00
45731;BME280;31440;48.584;13.460;2023-02-15T12:01:02;98142.78;;;0.76;100.00
45731;BME280;31440;48.584;13.460;2023-02-15T12:04:40;98144.81;;;0.52;100.00
45731;BME280;31440;48.584;13.460;2023-02-15T12:07:52;98144.47;;;0.35;100.00
45731;BME280;31440;48.584;13.460;2023-02-15T12:11:07;98135.31;;;0.45;100.00
45731;BME280;31440;48.584;13.460;2023-02-15T12:14:13;98136.75;;;0.34;100.00
45731;BME280;31440;48.584;13.460;2023-02-15T12:17:23;98130.09;;;0.03;100.00
45731;BME280;31440;48.584;13.460;2023-02-15T12:20:31;98124.97;;;0.81;100.00
45731;BME280;31440;48.584;13.460;2023-02-15T12:23:43;98110.41;;;0.78;100.00
45731;BME280;31440;48.584;13.460;2023-02-15T12:30:21;98114.09;;;-0.26;100.00
45731;BME280;31440;48.584;13.460;2023-02-15T12:33:41;98102.69;;;-0.03;100.00
45731;BME280;31440;48.584;13.460;2023-02-15T12:36:53;98095.06;;;0.80;100.00
45731;BME280;31440;48.584;13.460;2023-02-15T12:40:23;98086.81;;;0.53;100.00
45731;BME280;31440;48.584;13.460;2023-02-15T12:43:34;98092.03;;;0.17;100.00
45731;BME280;31440;48.584;13.460;2023-02-15T12:46:39;98085.03;;;0.08;100.00
45731;BME280;31440;48.584;13.460;2023-02-15T12:49:45;98079.91;;;0.47;100.00
45731;BME280;31440;48.584;13.460;2023-02-15T12:56:26;98039.56;;;0.35;100.00
45731;BME280;31440;48.584;13.460;2023-02-15T12:59:33;98053.97;;;0.30;100.00
45731;BME280;31440;48.584;13.460;2023-02-15T13:05:48;98059.75;;;0.62;100.00
45731;BME280;31440;48.584;13.460;2023-02-15T13:08:58;98043.13;;;-0.36;100.00
45731;BME280;31440;48.584;13.460;2023-02-15T13:12:17;98050.50;;;0.27;100.00
45731;BME280;31440;48.584;13.460;2023-02-15T13:18:32;98053.91;;;-0.12;100.00
45731;BME280;31440;48.584;13.460;2023-02-15T13:21:40;98030.44;;;0.06;100.00
45731;BME280;31440;48.584;13.460;2023-02-15T13:24:53;98042.66;;;0.19;100.00
45731;BME280;31440;48.584;13.460;2023-02-15T13:28:04;98036.34;;;0.03;100.00
45731;BME280;31440;48.584;13.460;2023-02-15T13:31:14;98023.59;;;0.05;100.00
45731;BME280;31440;48.584;13.460;2023-02-15T13:34:30;97995.00;;;-0.16;100.00
45731;BME280;31440;48.584;13.460;2023-02-15T13:37:55;98030.16;;;-0.45;100.00
45731;BME280;31440;48.584;13.460;2023-02-15T13:41:11;98018.53;;;0.06;100.00
45731;BME280;31440;48.584;13.460;2023-02-15T13:44:35;98019.16;;;-0.04;100.00
45731;BME280;31440;48.584;13.460;2023-02-15T14:07:07;97999.59;;;0.40;100.00
45731;BME280;31440;48.584;13.460;2023-02-15T14:13:52;98011.69;;;0.48;100.00
45731;BME280;31440;48.584;13.460;2023-02-15T14:27:37;98022.75;;;-0.33;100.00
45731;BME280;31440;48.584;13.460;2023-02-15T14:30:46;98015.63;;;-0.48;100.00
45731;BME280;31440;48.584;13.460;2023-02-15T14:33:55;98019.63;;;-0.21;100.00
45731;BME280;31440;48.584;13.460;2023-02-15T14:37:01;98014.88;;;-0.44;100.00
45731;BME280;31440;48.584;13.460;2023-02-15T14:40:31;98009.22;;;0.10;100.00
45731;BME280;31440;48.584;13.460;2023-02-15T14:47:33;97959.47;;;-0.06;100.00
45731;BME280;31440;48.584;13.460;2023-02-15T14:50:42;97973.53;;;0.16;100.00
45731;BME280;31440;48.584;13.460;2023-02-15T14:53:48;97997.81;;;-0.06;100.00
45731;BME280;31440;48.584;13.460;2023-02-15T15:00:30;97999.81;;;0.09;100.00
45731;BME280;31440;48.584;13.460;2023-02-15T15:03:50;98003.19;;;0.06;100.00
45731;BME280;31440;48.584;13.460;2023-02-15T15:07:21;97999.88;;;0.12;100.00
45731;BME280;31440;48.584;13.460;2023-02-15T15:10:33;97999.72;;;0.04;100.00
45731;BME280;31440;48.584;13.460;2023-02-15T15:13:39;98001.53;;;-0.31;100.00
45731;BME280;31440;48.584;13.460;2023-02-15T15:16:55;98010.53;;;-0.09;100.00
45731;BME280;31440;48.584;13.460;2023-02-15T15:23:42;98008.25;;;0.05;100.00
45731;BME280;31440;48.584;13.460;2023-02-15T15:26:47;97970.72;;;-0.37;100.00
45731;BME280;31440;48.584;13.460;2023-02-15T15:29:55;97998.13;;;0.09;100.00
45731;BME280;31440;48.584;13.460;2023-02-15T15:33:33;97998.94;;;-0.32;100.00
45731;BME280;31440;48.584;13.460;2023-02-15T15:37:25;98002.78;;;-0.12;100.00
45731;BME280;31440;48.584;13.460;2023-02-15T15:51:24;97989.31;;;-0.05;100.00
45731;BME280;31440;48.584;13.460;2023-02-15T15:54:31;97971.34;;;-0.08;100.00
45731;BME280;31440;48.584;13.460;2023-02-15T15:57:39;97986.66;;;-0.09;100.00
45731;BME280;31440;48.584;13.460;2023-02-15T16:01:10;97993.59;;;-0.02;100.00
45731;BME280;31440;48.584;13.460;2023-02-15T16:04:23;98001.28;;;0.40;100.00
45731;BME280;31440;48.584;13.460;2023-02-15T16:07:28;97993.97;;;0.15;100.00
45731;BME280;31440;48.584;13.460;2023-02-15T16:10:34;98003.06;;;-0.37;100.00
45731;BME280;31440;48.584;13.460;2023-02-15T16:13:41;97994.97;;;-0.18;100.00
45731;BME280;31440;48.584;13.460;2023-02-15T16:16:49;98003.44;;;-0.22;100.00
45731;BME280;31440;48.584;13.460;2023-02-15T16:20:21;97998.72;;;-0.43;100.00
45731;BME280;31440;48.584;13.460;2023-02-15T16:30:30;98003.16;;;-1.05;100.00
45731;BME280;31440;48.584;13.460;2023-02-15T16:33:37;98004.06;;;-0.68;100.00
45731;BME280;31440;48.584;13.460;2023-02-15T16:36:42;97986.66;;;-0.84;100.00
45731;BME280;31440;48.584;13.460;2023-02-15T16:39:47;97974.41;;;-0.63;100.00
45731;BME280;31440;48.584;13.460;2023-02-15T16:43:00;97997.47;;;-0.60;100.00
45731;BME280;31440;48.584;13.460;2023-02-15T16:46:12;98014.22;;;-0.34;100.00
45731;BME280;31440;48.584;13.460;2023-02-15T16:49:23;98002.53;;;-0.62;100.00
45731;BME280;31440;48.584;13.460;2023-02-15T16:52:29;98005.69;;;-0.72;100.00
45731;BME280;31440;48.584;13.460;2023-02-15T16:55:39;98009.59;;;-0.86;100.00
45731;BME280;31440;48.584;13.460;2023-02-15T16:58:49;98014.34;;;-1.01;100.00
45731;BME280;31440;48.584;13.460;2023-02-15T17:01:55;97990.28;;;-0.76;100.00
45731;BME280;31440;48.584;13.460;2023-02-15T17:11:33;98001.28;;;-1.13;100.00
45731;BME280;31440;48.584;13.460;2023-02-15T17:14:38;97995.59;;;-1.02;100.00
45731;BME280;31440;48.584;13.460;2023-02-15T17:17:46;97999.97;;;-0.98;100.00
45731;BME280;31440;48.584;13.460;2023-02-15T17:20:54;97969.88;;;-0.73;100.00
45731;BME280;31440;48.584;13.460;2023-02-15T17:24:01;97977.16;;;-0.90;100.00
45731;BME280;31440;48.584;13.460;2023-02-15T17:30:39;98021.44;;;-0.53;100.00
45731;BME280;31440;48.584;13.460;2023-02-15T17:33:44;98029.06;;;-0.89;100.00
45731;BME280;31440;48.584;13.460;2023-02-15T17:36:59;97983.63;;;-1.04;100.00
45731;BME280;31440;48.584;13.460;2023-02-15T17:40:31;98025.75;;;-0.87;100.00
45731;BME280;31440;48.584;13.460;2023-02-15T17:43:36;98031.34;;;-0.67;100.00
45731;BME280;31440;48.584;13.460;2023-02-15T17:46:41;98035.47;;;-0.36;100.00
45731;BME280;31440;48.584;13.460;2023-02-15T17:49:48;98008.66;;;-0.89;100.00
45731;BME280;31440;48.584;13.460;2023-02-15T17:52:55;98032.25;;;-0.65;100.00
45731;BME280;31440;48.584;13.460;2023-02-15T17:56:00;98011.47;;;-0.79;100.00
45731;BME280;31440;48.584;13.460;2023-02-15T17:59:13;98038.25;;;-0.63;100.00
45731;BME280;31440;48.584;13.460;2023-02-15T18:02:18;98035.38;;;-0.41;100.00
45731;BME280;31440;48.584;13.460;2023-02-15T18:05:41;98019.94;;;-0.81;100.00
45731;BME280;31440;48.584;13.460;2023-02-15T18:09:04;98037.69;;;-1.19;100.00
45731;BME280;31440;48.584;13.460;2023-02-15T18:12:33;98041.63;;;-0.99;100.00
45731;BME280;31440;48.584;13.460;2023-02-15T18:15:39;98033.28;;;-0.93;100.00
45731;BME280;31440;48.584;13.460;2023-02-15T18:18:44;98006.78;;;-1.61;100.00
45731;BME280;31440;48.584;13.460;2023-02-15T18:21:50;97997.69;;;-2.13;100.00
45731;BME280;31440;48.584;13.460;2023-02-15T18:24:55;98005.69;;;-1.39;100.00
45731;BME280;31440;48.584;13.460;2023-02-15T18:28:00;98042.22;;;-1.40;100.00
45731;BME280;31440;48.584;13.460;2023-02-15T18:31:05;98043.69;;;-1.50;100.00
45731;BME280;31440;48.584;13.460;2023-02-15T18:34:22;98050.88;;;-1.35;100.00
45731;BME280;31440;48.584;13.460;2023-02-15T18:37:30;98019.22;;;-2.03;100.00
45731;BME280;31440;48.584;13.460;2023-02-15T18:40:36;98032.44;;;-1.86;100.00
45731;BME280;31440;48.584;13.460;2023-02-15T18:43:41;98046.75;;;-1.61;100.00
45731;BME280;31440;48.584;13.460;2023-02-15T18:46:46;98022.41;;;-1.80;100.00
45731;BME280;31440;48.584;13.460;2023-02-15T18:49:51;98052.50;;;-1.69;100.00
45731;BME280;31440;48.584;13.460;2023-02-15T18:52:55;98012.22;;;-1.50;100.00
45731;BME280;31440;48.584;13.460;2023-02-15T18:56:00;98006.72;;;-2.24;100.00